Tiempo atmosférico en la estación meteorológica de Aranda De Duero, Burgos (790 m.)



Fecha
DESCASC
Temp. máxima en grados centígrados (hora)
DESCASC
Temp. mínima en grados centígrados (hora)
DESCASC
Temp. media en grados centígrados
DESCASC
Racha de viento máxima en m/sg (hora)
DESCASC
Velocidad máxima media en intervalos de 10 minutos(hora)
DESCASC
Precipitaciones diarias en mm
DESCASC
Precipitaciones de 00:00 a 06:00 en mm
DESCASC
Precipitaciones de 06:00 a 12:00 en mm
DESCASC
Precipitaciones de 12:00 a 18:00 en mm
DESCASC
Precipitaciones de 18:00 a 24:00 en mm
DESCASC
31-05-2020 28.3 (13:10) 14 (06:50) 21.1 11.39 (13:40) 4.17 (23:00) 7.6 0 0 4 3.6
30-05-2020 32.9 (17:20) 11.8 (04:30) 22.4 8.89 (21:30) 2.78 (08:50) 0 0 0 0 0
29-05-2020 30.6 (16:20) 9.2 (07:00) 19.9 11.11 (17:40) 3.33 (18:30) 0 0 0 0 0
28-05-2020 28.4 (17:10) 14 (00:00) 21.2 8.33 (09:20) 4.72 (09:40) 0 0 0 0 0
27-05-2020 28.9 (16:40) 13.9 (00:00) 21.4 12.22 (16:20) 5 (19:20) 0 0 0 0 0
26-05-2020 26.1 (16:30) 12.3 (00:00) 19.2 11.11 (17:30) 5.28 (11:10) 0 0 0 0 0
25-05-2020 28.1 (16:00) 10.1 (00:00) 19.1 14.44 (18:40) 6.67 (18:40) 0 0 0 0 0
24-05-2020 29.2 (16:10) 7.5 (00:00) 18.4 7.22 (17:40) 3.33 (17:20) 0 0 0 0 0
23-05-2020 26.2 (17:10) 10.2 (00:00) 18.2 10.83 (18:40) 4.72 (18:20) 0 0 0 0 0
22-05-2020 32 (17:10) 10.6 (00:00) 21.3 7.22 (17:30) 2.78 (18:50) 0 0 0 0 0
21-05-2020 31 (17:00) 7.4 (00:00) 19.2 5.28 (18:10) 1.94 (17:40) 0 0 0 0 0
20-05-2020 28.4 (16:40) 4.3 (00:00) 16.3 7.22 (17:40) 3.06 (17:40) 0 0 0 0 0
19-05-2020 -- (--) -- (--) -- -- (--) -- (--) -- 0 -- -- --
18-05-2020 23.6 (17:00) 3.4 (00:00) 13.5 10.56 (19:00) 5.28 (19:00) 0 0 0 0 0
17-05-2020 21.9 (17:20) 2.5 (00:00) 12.2 7.22 (18:20) 3.33 (20:00) 0 0 0 0 0
16-05-2020 16.7 (14:40) 7 (00:00) 11.9 9.44 (20:10) 3.89 (19:10) 0 0 0 0 0
15-05-2020 14.2 (14:40) 7.6 (00:00) 10.9 8.61 (19:50) 3.61 (15:50) 0.2 0 0 0 0.2
14-05-2020 14 (15:30) 9 (00:00) 11.5 11.39 (13:10) 5.28 (12:20) 0.2 0 0 0 0.2
13-05-2020 18.1 (16:00) 8.5 (00:00) 13.3 8.06 (12:50) 2.78 (13:10) 1.2 1.2 0 0 0
12-05-2020 17.1 (15:00) 8.6 (00:00) 12.9 12.5 (15:50) 3.61 (16:00) 18 0 0.2 8.8 9
11-05-2020 20 (17:20) 9.2 (00:00) 14.6 10 (18:10) 4.44 (03:20) 0.6 0 0 0 0.6
10-05-2020 18.7 (17:50) 9.6 (00:00) 14.2 10.83 (17:00) 4.72 (15:50) 3.2 2.6 0.6 0 0
09-05-2020 22.5 (17:00) 9.6 (00:00) 16.1 9.44 (17:00) 4.44 (17:10) 0 0 0 0 0
08-05-2020 25.2 (17:10) 12.9 (00:00) 19.1 9.17 (17:30) 3.33 (17:30) 8.8 0.2 8.4 0.2 0
07-05-2020 28 (16:10) 10.2 (00:00) 19.1 9.72 (16:40) 3.89 (11:30) 0 0 0 0 0
06-05-2020 23.6 (17:50) 4.9 (00:00) 14.3 5 (16:20) 1.94 (20:00) 0 0 0 0 0
05-05-2020 22.8 (17:10) 10.4 (00:00) 16.6 8.61 (17:40) 2.78 (01:00) 0 0 0 0 0

Gráficas

Temp. máximas Temp. mínimas Temp. medias Precipitaciones Rachas de viento máximas Velocidades máximas media en intervalos de 10 minutos

Datos horarios

Fecha y hora oficial Temperatura (ºC) Velocidad del viento (km/h) Dirección del viento Racha (km/h) Dirección de racha Precipitación (mm) Presión (hPa) Tendencia (hPa) Humedad (%)
2020-06-03 23:00:00 14.9 3 Oeste 10 Oeste 1.2 919 1 85
2020-06-03 22:00:00 15 2 Oeste 11 Noroeste 0 918.6 -0.5 83
2020-06-03 21:00:00 15.2 3 Sudoeste 8 Noroeste 0 918.7 -0.3 83
2020-06-03 20:00:00 15.5 0 Calma 18 Sudeste 1 918 1 81
2020-06-03 19:00:00 15.1 4 Sudeste 32 Norte 1.6 919.1 1.7 79
2020-06-03 18:00:00 15.9 14 Norte 68 Noroeste 0.6 919 0.7 72
2020-06-03 17:00:00 26.9 13 Oeste 43 Oeste 0 917 -2.6 31
2020-06-03 16:00:00 27.5 13 Sudoeste 41 Oeste 0 917.4 -3.2 32
2020-06-03 15:00:00 25.8 9 Sudoeste 33 Sudoeste 0 918.3 -2.8 38
2020-06-03 14:00:00 25.8 11 Sudoeste 33 Oeste 0 919.6 -1.8 40
2020-06-03 13:00:00 25.1 10 Oeste 33 Oeste 0 920.6 -- 42
2020-06-03 12:00:00 23.2 10 Sudoeste 26 Oeste 0 921.1 -- 50
2020-06-03 11:00:00 22 9 Sudoeste 24 Oeste 0 921.4 -- 55
2020-06-03 10:00:00 19.1 7 Sudoeste 20 Oeste 0 921.9 -- 65
2020-06-03 09:00:00 19.5 6 Sudoeste 15 Sudoeste 0 922 -- 63
2020-06-03 08:00:00 17 3 Norte 5 Norte 0 921.8 -- 71
2020-06-03 07:00:00 13.9 0 Calma 12 Sudoeste 0 921.9 -- 79
2020-06-03 06:00:00 13.7 0 Calma 6 Sudeste 0 921.9 -- 77
2020-06-03 05:00:00 14.4 0 Calma 4 Sudeste 0 922 -- 75
2020-06-03 04:00:00 15.2 2 Norte 6 Oeste 0 922.5 -- 73
2020-06-03 03:00:00 16.8 0 Calma 19 Oeste 0 922.9 -- 64
2020-06-03 02:00:00 18.1 8 Sudoeste 18 Sudoeste 0 923.3 -- 56
2020-06-03 01:00:00 18.5 3 Sudoeste 10 Sudoeste 0 923.3 -- 55
2020-06-03 00:00:00 19.2 2 Norte 13 Sudoeste 0 923.7 -- 54
2020-06-02 23:00:00 20.7 0 Calma 9 Este 0 923.6 -- 51
2020-06-02 22:00:00 23.6 2 Oeste 18 Sudoeste 0 922.9 -- 43
2020-06-02 21:00:00 25.4 6 Sudoeste 19 Sudoeste 0 922.3 -- 34
2020-06-02 20:00:00 27.1 6 Sur 19 Sudoeste 0 922.2 -- 26
2020-06-02 19:00:00 27.4 3 Noroeste 10 Noroeste 0 922.4 -- 27
2020-06-02 18:00:00 27.7 3 Norte 12 Sudoeste 0 923 -- 24
2020-06-02 17:00:00 27.6 3 Sur 13 Sudoeste 0 923.5 -- 29
2020-06-02 16:00:00 27.9 4 Sudoeste 14 Sudoeste 0 924.2 -- 31
2020-06-02 15:00:00 26.5 5 Oeste 17 Noroeste 0 924.7 -- 34
2020-06-02 14:00:00 25.1 5 Norte 18 Noroeste 0 925.2 -- 42
2020-06-02 13:00:00 24.7 4 Norte 14 Noroeste 0 925.6 -- 45
2020-06-02 12:00:00 22.4 5 Norte 13 Norte 0 926.1 -- 54
2020-06-02 11:00:00 19.6 0 Calma 8 Este 0 926.4 -- 67
2020-06-02 10:00:00 17.9 5 Este 8 Este 0 926.4 -- 71
2020-06-02 09:00:00 16.6 3 Este 9 Este 0 926.2 -- 74
2020-06-02 08:00:00 14.3 3 Este 10 Sudeste 0 926.2 -- 77
2020-06-02 07:00:00 13.1 0 Calma 4 Sudeste 0 926.1 -- 82
2020-06-02 06:00:00 13.6 2 Sudeste 4 Este 0 925.7 -- 80
2020-06-02 05:00:00 14.8 0 Calma 5 Sudeste 0 925.5 -- 77
2020-06-02 04:00:00 15.6 0 Calma 7 Sudeste 0 925.6 -- 75
2020-06-02 03:00:00 16.4 0 Calma 4 Nordeste 0 925.7 -- 77
2020-06-02 02:00:00 17 2 Nordeste 5 Nordeste 0 925.9 -- 75
2020-06-02 01:00:00 17.8 0 Calma 4 Nordeste 0 925.8 -- 73
2020-06-02 00:00:00 19.2 0 Calma 9 Sudoeste 0 926.1 -- 67
2020-06-01 23:00:00 20 0 Calma 4 Nordeste 0 925.6 -- 70
2020-06-01 22:00:00 21.5 0 Calma 4 Nordeste 0 925.1 -- 61
2020-06-01 21:00:00 23.6 0 Calma 4 Norte 0 924.8 -- 54
2020-06-01 20:00:00 25.3 2 Oeste 10 Noroeste 0 924.4 -- 36
2020-06-01 19:00:00 26.4 2 Oeste 12 Este 0 924.5 -- 33
2020-06-01 18:00:00 28.3 4 Sudoeste 19 Norte 0 924.6 -- 28
2020-06-01 17:00:00 27.7 2 Sur 10 Sudoeste 0 924.7 -- 29
2020-06-01 16:00:00 25 4 Nordeste 17 Norte 0 925.1 -- 35
2020-06-01 15:00:00 24.7 4 Sur 14 Sudeste 0 925.4 -- 36
2020-06-01 14:00:00 24.7 3 Oeste 12 Sudoeste 0 925.7 -- 41
2020-06-01 13:00:00 25 2 Sudoeste 12 Noroeste 0 926 -- 38
2020-06-01 12:00:00 23.6 3 Oeste 11 Sudoeste 0 925.9 -- 45
2020-06-01 11:00:00 22 2 Sudoeste 12 Sudeste 0 925.9 -- 50
2020-06-01 10:00:00 18.6 6 Sudeste 14 Sudeste 0 925.9 -- 65
2020-06-01 09:00:00 17.4 6 Este 13 Sudeste 0 925.5 -- 68
2020-06-01 08:00:00 15.8 0 Calma 5 Sudeste 0 925.1 -- 77
2020-06-01 07:00:00 12.2 0 Calma 5 Este 0 924.7 -- 86
2020-06-01 06:00:00 12.1 0 Calma 5 Sudoeste 0 924.5 -- 85
2020-06-01 05:00:00 13 3 Este 8 Este 0 924 -- 86
2020-06-01 04:00:00 13.4 2 Nordeste 7 Este 0 923.8 -- 84
2020-06-01 03:00:00 14.1 2 Oeste 21 Sudoeste 0 924.8 -- 85
2020-06-01 02:00:00 14.3 8 Este 23 Este 1 924.1 -- 83
2020-06-01 01:00:00 14.1 8 Sudeste 22 Sudoeste 1.8 925.7 -- 83
2020-06-01 00:00:00 14.4 9 Sudoeste 41 Oeste 1.4 926 -- 83
2020-05-31 23:00:00 15.8 15 Sudoeste 37 Sudoeste 1 925.8 -- 78
2020-05-31 22:00:00 17.1 4 Sur 13 Sudeste 1.2 924.3 -- 67
2020-05-31 21:00:00 18.5 6 Sudeste 16 Nordeste 0 922.7 -- 59
2020-05-31 20:00:00 18.4 6 Este 22 Este 0 922.2 -- 63
2020-05-31 19:00:00 19.5 8 Este 23 Nordeste 0 922.1 -- 65
2020-05-31 18:00:00 17.7 11 Este 24 Sudeste 0.2 922.6 -- 68
2020-05-31 17:00:00 19.5 3 Sudeste 29 Noroeste 3.8 922.8 -- 65
2020-05-31 16:00:00 27.1 4 Sudoeste 24 Oeste 0 922.3 -- 24
2020-05-31 15:00:00 27.7 7 Oeste 36 Noroeste 0 922.1 -- 24
2020-05-31 14:00:00 26 9 Oeste 41 Noroeste 0 922.7 -- 28
2020-05-31 13:00:00 28.2 8 Oeste 28 Oeste 0 922.6 -- 30
2020-05-31 12:00:00 27.6 7 Oeste 27 Noroeste 0 922.8 -- 30
2020-05-31 11:00:00 25.6 3 Sudeste 16 Este 0 922.3 -- 35
2020-05-31 10:00:00 22.5 6 Este 15 Este 0 922.3 -- 45
2020-05-31 09:00:00 19.5 6 Este 13 Este 0 922.3 -- 56
2020-05-31 08:00:00 16.7 8 Este 16 Este 0 922 -- 66
2020-05-31 07:00:00 14 0 Calma 10 Sudeste 0 922.2 -- 72
2020-05-31 06:00:00 14.5 4 Este 10 Sudeste 0 922.2 -- 69
2020-05-31 05:00:00 15.2 2 Este 8 Sudeste 0 922.6 -- 67
2020-05-31 04:00:00 15.5 2 Nordeste 6 Este 0 922.5 -- 67
2020-05-31 03:00:00 16.1 0 Calma 9 Este 0 923.1 -- 63
2020-05-31 02:00:00 16.4 3 Este 10 Este 0 923.4 -- 61
2020-05-31 01:00:00 17.2 2 Sudeste 5 Sudeste 0 923.8 -- 54
2020-05-31 00:00:00 19.6 3 Este 13 Oeste 0 923.6 -- 47
2020-05-30 23:00:00 21.4 4 Oeste 19 Sudoeste 0 923.6 -- 39
2020-05-30 22:00:00 23.8 6 Sudoeste 32 Sudoeste 0 923.1 -- 32
2020-05-30 21:00:00 26.3 2 Nordeste 13 Noroeste 0 921.9 -- 25
2020-05-30 20:00:00 27.7 5 Noroeste 16 Noroeste 0 921.5 -- 21
2020-05-30 19:00:00 28.7 4 Noroeste 15 Noroeste 0 921.4 -- 19
2020-05-30 18:00:00 30.1 5 Nordeste 22 Sudoeste 0 921.6 -- 17
2020-05-30 17:00:00 31.8 4 Sur 24 Noroeste 0 921.7 -- 14
2020-05-30 16:00:00 31.3 7 Oeste 24 Sudoeste 0 922.3 -- 15
2020-05-30 15:00:00 29.9 9 Sudoeste 24 Oeste 0 922.9 -- 18
2020-05-30 14:00:00 29.7 7 Sudoeste 19 Sudoeste 0 923.4 -- 18
2020-05-30 13:00:00 28.3 3 Oeste 13 Sudeste 0 923.8 -- 25
2020-05-30 12:00:00 25.6 3 Nordeste 9 Sudeste 0 924.2 -- 30
2020-05-30 11:00:00 24.2 3 Norte 10 Este 0 924.5 -- 35
2020-05-30 10:00:00 21.1 4 Este 14 Este 0 924.9 -- 43
2020-05-30 09:00:00 18.2 8 Este 18 Sudeste 0 925 -- 51
2020-05-30 08:00:00 16.1 7 Este 14 Sudeste 0 924.8 -- 58
2020-05-30 07:00:00 13.6 6 Este 17 Este 0 924.6 -- 66
2020-05-30 06:00:00 13.9 7 Este 17 Este 0 924.6 -- 66
2020-05-30 05:00:00 13.1 6 Este 13 Este 0 924.7 -- 71
2020-05-30 04:00:00 12.2 2 Sudeste 7 Este 0 924.8 -- 72
2020-05-30 03:00:00 12.5 3 Este 6 Este 0 924.8 -- 71
2020-05-30 02:00:00 13.3 0 Calma 4 Sudoeste 0 925 -- 64
2020-05-30 01:00:00 14.6 2 Sudeste 5 Sudeste 0 925.1 -- 60
2020-05-30 00:00:00 16.6 2 Sudoeste 5 Sudoeste 0 925.2 -- 53
2020-05-29 23:00:00 20.1 0 Calma 9 Norte 0 924.9 -- 42
2020-05-29 22:00:00 23 3 Norte 12 Norte 0 924.2 -- 31
2020-05-29 21:00:00 25.1 6 Norte 24 Norte 0 923.9 -- 24
2020-05-29 20:00:00 26.8 9 Norte 22 Noroeste 0 923.7 -- 22
2020-05-29 19:00:00 27.7 6 Nordeste 28 Norte 0 923.8 -- 17
2020-05-29 18:00:00 28.5 8 Norte 40 Noroeste 0 924 -- 21
2020-05-29 17:00:00 29.5 8 Norte 24 Norte 0 924.4 -- 16
2020-05-29 16:00:00 28.6 4 Noroeste 20 Noroeste 0 924.9 -- 22
2020-05-29 15:00:00 28 9 Noroeste 23 Noroeste 0 925.5 -- 22
2020-05-29 14:00:00 28.4 6 Oeste 25 Noroeste 0 926.2 -- 23
2020-05-29 13:00:00 28.1 3 Sur 12 Sudeste 0 926.8 -- 25
2020-05-29 12:00:00 26.8 2 Noroeste 10 Nordeste 0 927.6 -- 28
2020-05-29 11:00:00 24.5 3 Sudeste 9 Sudeste 0 928 -- 33
2020-05-29 10:00:00 20.8 3 Este 10 Este 0 928.6 -- 42
2020-05-29 09:00:00 17.8 3 Sudeste 11 Sudeste 0 928.6 -- 50
2020-05-29 08:00:00 14.2 5 Sudeste 9 Sudeste 0 928.8 -- 62
2020-05-29 07:00:00 9.2 0 Calma 3 Sudeste 0 928.9 -- 75
2020-05-29 06:00:00 10 0 Calma 3 Sudoeste 0 928.8 -- 73
2020-05-29 05:00:00 11.1 0 Calma 8 Este 0 928.9 -- 72
2020-05-29 04:00:00 12.3 3 Este 9 Este 0 929 -- 65
2020-05-29 03:00:00 13.4 3 Sudeste 9 Este 0 929.3 -- 61
2020-05-29 02:00:00 13.9 4 Este 12 Sudeste 0 929.6 -- 61
2020-05-29 01:00:00 14.9 5 Este 10 Sudeste 0 929.7 -- 55
2020-05-29 00:00:00 15.2 0 Calma 3 Este 0 929.9 -- 53
2020-05-28 23:00:00 17.5 0 Calma 3 Este 0 929.9 -- 43
2020-05-28 22:00:00 20.8 0 Calma 7 Sudeste 0 929.4 -- 36
2020-05-28 21:00:00 25 2 Sudeste 18 Sudeste 0 929.1 -0.5 21
2020-05-28 20:00:00 26.2 10 Este 23 Sudeste 0 929 -0.9 15
2020-05-28 19:00:00 26.7 11 Sudeste 24 Sudeste 0 929.2 -1.3 15
2020-05-28 18:00:00 28 6 Sudeste 24 Este 0 929.6 -- 14
2020-05-28 17:00:00 28 7 Sudeste 22 Sudeste 0 929.9 -- 12
2020-05-28 16:00:00 27.2 8 Sudeste 24 Este 0 930.5 -- 16
2020-05-28 15:00:00 26.3 8 Este 28 Sudeste 0 931.1 -- 20
2020-05-28 14:00:00 26.1 10 Este 27 Sudeste 0 931.8 -- 19
2020-05-28 13:00:00 25.4 10 Sudeste 29 Sudeste 0 932.1 -- 30
2020-05-28 12:00:00 23.9 12 Este 30 Este 0 932.7 -- 35
2020-05-28 11:00:00 22.3 13 Sudeste 29 Este 0 933.1 -- 40
2020-05-28 10:00:00 20.2 11 Este 30 Sudeste 0 933.5 -- 42
2020-05-28 09:00:00 17.8 15 Este 29 Sudeste 0 933.5 -- 51
2020-05-28 08:00:00 15.7 10 Este 22 Este 0 933.8 -- 62
2020-05-28 07:00:00 14 8 Este 16 Este 0 933.8 -- 69
2020-05-28 06:00:00 14.7 7 Este 19 Este 0 933.8 -- 68
2020-05-28 05:00:00 15.2 6 Este 17 Sudeste 0 933.9 -- 68
2020-05-28 04:00:00 16.2 7 Este 22 Sudeste 0 933.9 -- 65
2020-05-28 03:00:00 16.9 9 Este 22 Sudeste 0 933.9 -- 63
2020-05-28 02:00:00 17.3 5 Sudeste 13 Este 0 934 -- 60
2020-05-28 01:00:00 18.3 7 Sudeste 17 Este 0 934.1 -- 57
2020-05-28 00:00:00 19 6 Este 15 Sudeste 0 934 -- 54
2020-05-27 23:00:00 20.6 7 Sudeste 19 Sudeste 0 933.6 -- 46
2020-05-27 22:00:00 22.9 5 Este 22 Sudeste 0 932.7 -- 36
2020-05-27 21:00:00 25 9 Este 29 Sudeste 0 932.4 -- 29
2020-05-27 20:00:00 26 11 Sudeste 34 Sudeste 0 932.2 -- 28
2020-05-27 19:00:00 26.4 13 Este 33 Sudeste 0 932.2 -- 27
2020-05-27 18:00:00 27.1 16 Este 32 Este 0 932.5 -- 28
2020-05-27 17:00:00 27.9 9 Sudeste 44 Sudeste 0 932.8 -- 25
2020-05-27 16:00:00 27.5 11 Sudeste 37 Este 0 933 -- 26
2020-05-27 15:00:00 26.4 13 Este 33 Este 0 933.3 -- 29
2020-05-27 14:00:00 25.9 10 Este 27 Este 0 933.7 -- 31
2020-05-27 13:00:00 25.2 9 Este 27 Sudeste 0 934.1 -- 35
2020-05-27 12:00:00 24.1 11 Este 33 Este 0 934.5 -- 39
2020-05-27 11:00:00 22.8 12 Este 32 Este 0 934.7 -- 49
2020-05-27 10:00:00 20 15 Este 33 Este 0 934.9 -- 56
2020-05-27 09:00:00 18.1 13 Este 31 Sudeste 0 934.8 -- 63
2020-05-27 08:00:00 15.9 14 Este 27 Este 0 934.7 -- 70
2020-05-27 07:00:00 13.9 7 Este 19 Sudeste 0 934.5 -- 79
2020-05-27 06:00:00 14.4 6 Este 16 Este 0 934.4 -- 79
2020-05-27 05:00:00 14.5 6 Este 14 Este 0 934.3 -- 79
2020-05-27 04:00:00 14.8 4 Este 11 Nordeste 0 934.5 -- 76
2020-05-27 03:00:00 15.1 5 Este 11 Este 0 934.7 -- 73
2020-05-27 02:00:00 15.7 3 Nordeste 14 Este 0 935 -- 70
2020-05-27 01:00:00 16.1 0 Calma 9 Sudeste 0 935 -- 69
2020-05-27 00:00:00 17.4 3 Sudeste 12 Sudeste 0 934.9 -- 65
2020-05-26 23:00:00 19 4 Sudeste 12 Este 0 934.6 -- 60
2020-05-26 22:00:00 21 5 Este 24 Sudeste 0 934.1 -- 53
2020-05-26 21:00:00 22.3 11 Este 25 Sudeste 0 933.8 -- 46
2020-05-26 20:00:00 22.7 11 Este 30 Sudeste 0 933.4 -- 37
2020-05-26 19:00:00 22.8 12 Sudeste 27 Sudeste 0 933.5 -- 46
2020-05-26 18:00:00 24 5 Sudeste 40 Sudeste 0 933.4 -- 38
2020-05-26 17:00:00 25.4 9 Este 31 Este 0 933.4 -- 34
2020-05-26 16:00:00 25.5 11 Sudeste 35 Sudeste 0 933.8 -- 34
2020-05-26 15:00:00 24.4 14 Sudeste 39 Sudeste 0 934.2 -- 40
2020-05-26 14:00:00 23.6 15 Sudeste 34 Sudeste 0 934.8 -- 47
2020-05-26 13:00:00 22.9 13 Este 39 Sudeste 0 935.3 -- 51
2020-05-26 12:00:00 21.4 17 Sudeste 36 Sudeste 0 935.6 -- 53
2020-05-26 11:00:00 19.7 18 Este 36 Este 0 935.7 -- 60
2020-05-26 10:00:00 19.7 17 Este 36 Sudeste 0 935.5 -- 58
2020-05-26 09:00:00 15.8 10 Este 22 Nordeste 0 935.5 -- 74
2020-05-26 08:00:00 13.7 5 Este 11 Este 0 935.7 -- 81
2020-05-26 07:00:00 12.4 0 Calma 9 Este 0 935.1 -- 81
2020-05-26 06:00:00 13.3 2 Este 9 Sudeste 0 935 -- 80
2020-05-26 05:00:00 13.6 4 Este 15 Nordeste 0 935 -- 81
2020-05-26 04:00:00 13.9 5 Nordeste 13 Nordeste 0 935 -- 81
2020-05-26 03:00:00 14.5 3 Este 12 Este 0 935.3 -- 81
2020-05-26 02:00:00 15.1 4 Este 12 Este 0 935.5 -- 80
2020-05-26 01:00:00 14.9 0 Calma 8 Nordeste 0 935.5 -- 72
2020-05-26 00:00:00 16.3 0 Calma 8 Norte 0 935.5 -- 71
2020-05-25 23:00:00 18.2 2 Nordeste 22 Este 0 934.9 -- 67
2020-05-25 22:00:00 19.4 9 Este 22 Este 0 934.1 -- 62
2020-05-25 21:00:00 20 9 Este 31 Este 0 933.5 -- 59
2020-05-25 20:00:00 21 14 Este 44 Este 0 933.3 -- 50
2020-05-25 19:00:00 21.4 19 Este 52 Este 0 933.2 -- 56
2020-05-25 18:00:00 25.1 11 Este 33 Este 0 932.6 -- 38
2020-05-25 17:00:00 27.5 13 Norte 28 Norte 0 932.2 -- 25
2020-05-25 16:00:00 27.9 7 Noroeste 22 Noroeste 0 932.4 -- 29
2020-05-25 15:00:00 26.7 5 Nordeste 22 Este 0 932.7 -- 35
2020-05-25 14:00:00 26.3 5 Nordeste 20 Noroeste 0 933.2 -- 31
2020-05-25 13:00:00 25.4 5 Nordeste 21 Sudeste 0 933.6 -- 37
2020-05-25 12:00:00 23.6 6 Este 22 Sudeste 0 933.8 -- 46
2020-05-25 11:00:00 22.3 6 Este 16 Este 0 933.9 -- 50
2020-05-25 10:00:00 20.9 4 Este 9 Sudeste 0 934.2 -- 53
2020-05-25 09:00:00 18.2 2 Sudoeste 7 Sudoeste 0 934.3 -- 59
2020-05-25 08:00:00 13.6 2 Oeste 5 Sudoeste 0 934.2 -- 73
2020-05-25 07:00:00 10.1 4 Sudoeste 5 Sudoeste 0 933.9 -- 80
2020-05-25 06:00:00 10.7 3 Sudoeste 5 Sudoeste 0 933.7 -- 79
2020-05-25 05:00:00 11.5 0 Calma 5 Sudoeste 0 933.7 -- 79
2020-05-25 04:00:00 12.3 0 Calma 5 Sudoeste 0 934 -- 76
2020-05-25 03:00:00 12.8 2 Sudoeste 7 Oeste 0 934.4 -- 76
2020-05-25 02:00:00 13.9 2 Sudoeste 5 Sudoeste 0 934.4 -- 72
2020-05-25 01:00:00 15.7 3 Sudoeste 7 Sudoeste 0 934.6 -- 66
2020-05-25 00:00:00 17.3 2 Sudoeste 5 Sudoeste 0 934.7 -- 63
2020-05-24 23:00:00 18.2 0 Calma 8 Sudoeste 0 934.7 -- 59
2020-05-24 22:00:00 20.1 3 Sudoeste 16 Noroeste 0 934 -- 49
2020-05-24 21:00:00 21.8 8 Noroeste 23 Noroeste 0 933.6 -- 42
2020-05-24 20:00:00 24.2 9 Noroeste 22 Oeste 0 933.2 -- 38
2020-05-24 19:00:00 25.6 9 Noroeste 22 Noroeste 0 933.2 -- 33
2020-05-24 18:00:00 27 9 Noroeste 26 Noroeste 0 933.4 -- 32
2020-05-24 17:00:00 28.6 6 Oeste 19 Noroeste 0 933.5 -- 32
2020-05-24 16:00:00 28.6 6 Sudoeste 17 Noroeste 0 933.7 -- 31
2020-05-24 15:00:00 25.8 5 Este 14 Este 0 934.2 -- 36
2020-05-24 14:00:00 25 4 Sudeste 13 Este 0 934.7 -- 39
2020-05-24 13:00:00 24.1 5 Este 14 Nordeste 0 935.1 -- 40
2020-05-24 12:00:00 22.1 4 Este 14 Este 0 935.5 -- 44
2020-05-24 11:00:00 19.9 7 Nordeste 18 Este 0 935.8 -- 49
2020-05-24 10:00:00 16.8 8 Este 22 Este 0 936.2 -- 54
2020-05-24 09:00:00 14.8 7 Este 20 Este 0 936.3 -- 59
2020-05-24 08:00:00 10.6 0 Calma 3 Oeste 0 936.3 -- 78
2020-05-24 07:00:00 7.5 0 Calma 3 Sudoeste 0 936.2 -- 82
2020-05-24 06:00:00 7.8 0 Calma 3 Sudoeste 0 936.4 -- 82
2020-05-24 05:00:00 8.2 0 Calma 4 Sudoeste 0 936.7 -- 81
2020-05-24 04:00:00 8.7 2 Sudoeste 4 Sudoeste 0 936.9 -- 79
2020-05-24 03:00:00 9.4 0 Calma 5 Sudoeste 0 937.2 -- 78
2020-05-24 02:00:00 10.2 0 Calma 8 Sudoeste 0 937.9 -- 78
2020-05-24 01:00:00 11.2 4 Sudoeste 8 Oeste 0 937.8 -- 74
2020-05-24 00:00:00 12.2 2 Oeste 8 Oeste 0 937.8 -- 72
2020-05-23 23:00:00 13.1 3 Oeste 14 Noroeste 0 937.6 -- 68
2020-05-23 22:00:00 14.6 5 Noroeste 18 Noroeste 0 936.9 -- 62
2020-05-23 21:00:00 16.7 6 Oeste 23 Noroeste 0 936.5 -- 56
2020-05-23 20:00:00 18.6 8 Noroeste 34 Nordeste 0 935.9 -- 53
2020-05-23 19:00:00 19.9 17 Norte 39 Noroeste 0 935.8 -- 48
2020-05-23 18:00:00 22.5 16 Norte 32 Noroeste 0 935.7 -- 45
2020-05-23 17:00:00 26.1 6 Oeste 25 Noroeste 0 935.4 -- 36
2020-05-23 16:00:00 25.2 11 Noroeste 24 Noroeste 0 935.4 -- 38
2020-05-23 15:00:00 24.4 6 Oeste 25 Noroeste 0 936.1 -- 43
2020-05-23 14:00:00 24.1 5 Noroeste 24 Noroeste 0 936.4 -- 42
2020-05-23 13:00:00 23.6 10 Noroeste 22 Noroeste 0 936.7 -- 47
2020-05-23 12:00:00 22.9 6 Oeste 25 Noroeste 0 936.8 -- 50
2020-05-23 11:00:00 21.9 5 Sudoeste 15 Noroeste 0 936.6 -- 52
2020-05-23 10:00:00 18.6 5 Sudoeste 14 Oeste 0 936.8 -- 63
2020-05-23 09:00:00 13.3 4 Noroeste 13 Noroeste 0 936.6 -- 86
2020-05-23 08:00:00 11.6 2 Oeste 11 Oeste 0 935.8 -- 86
2020-05-23 07:00:00 10.2 0 Calma 4 Oeste 0 935.3 -- 81
2020-05-23 06:00:00 10.6 2 Sudoeste 5 Sudoeste 0 935.1 -- 80
2020-05-23 05:00:00 11.2 0 Calma 3 Sudoeste 0 934.8 -- 79
2020-05-23 04:00:00 12.1 0 Calma 4 Este 0 934.6 -- 75
2020-05-23 03:00:00 13 0 Calma 3 Este 0 934.6 -- 75
2020-05-23 02:00:00 13.9 3 Este 4 Este 0 934.7 -- 74
2020-05-23 01:00:00 15 0 Calma 4 Sudoeste 0 934.4 -- 71
2020-05-23 00:00:00 16.6 2 Sudoeste 5 Sudoeste 0 933.9 -- 65
2020-05-22 23:00:00 19.1 0 Calma 6 Sudoeste 0 933.4 -- 55
2020-05-22 22:00:00 22.4 4 Sudoeste 7 Sudoeste 0 932.6 -- 45
2020-05-22 21:00:00 26.2 3 Noroeste 17 Noroeste 0 932.2 -- 29
2020-05-22 20:00:00 28.4 4 Oeste 17 Oeste 0 931.8 -- 25
2020-05-22 19:00:00 30.1 6 Oeste 25 Sudoeste 0 931.6 -- 24
2020-05-22 18:00:00 31.7 8 Sudoeste 26 Sudoeste 0 931.8 -- 19
2020-05-22 17:00:00 31.4 5 Oeste 21 Oeste 0 932.2 -- 23
2020-05-22 16:00:00 30.5 5 Noroeste 23 Sudoeste 0 932.7 -- 24
2020-05-22 15:00:00 29.3 7 Sudoeste 22 Oeste 0 933.2 -- 27
2020-05-22 14:00:00 28.9 7 Sudoeste 18 Oeste 0 933.5 -- 29
2020-05-22 13:00:00 26.8 4 Nordeste 13 Nordeste 0 933.9 -- 35
2020-05-22 12:00:00 25.3 4 Este 9 Este 0 934.1 -- 44
2020-05-22 11:00:00 24.5 0 Calma 8 Oeste 0 934.3 -- 41
2020-05-22 10:00:00 20.1 2 Este 9 Sudeste 0 934.4 -- 49
2020-05-22 09:00:00 16.5 4 Este 9 Sudeste 0 933.7 -- 59
2020-05-22 08:00:00 14 4 Este 8 Este 0 933.4 -- 68
2020-05-22 07:00:00 10.7 4 Este 9 Este 0 933 -- 79
2020-05-22 06:00:00 11.2 6 Este 10 Este 0 932.8 -- 76
2020-05-22 05:00:00 11.7 5 Este 8 Este 0 932.6 -- 76
2020-05-22 04:00:00 12 4 Este 8 Este 0 932.4 -- 77
2020-05-22 03:00:00 11.7 2 Este 6 Este 0 932.5 -- 77
2020-05-22 02:00:00 12.5 0 Calma 8 Sudoeste 0 932.6 -- 74
2020-05-22 01:00:00 13.5 0 Calma 3 Norte 0 932.3 -- 68
2020-05-22 00:00:00 14.9 0 Calma 4 Sudeste 0 932 1.4 68
2020-05-21 23:00:00 17.2 0 Calma 4 Este 0 931.7 -- 54
2020-05-21 22:00:00 20.5 0 Calma 3 Sudeste 0 931 -- 45
2020-05-21 21:00:00 24.8 0 Calma 13 Oeste 0 930.6 -- 29
2020-05-21 20:00:00 26.6 3 Oeste 18 Oeste 0 930 -- 25
2020-05-21 19:00:00 27.7 5 Noroeste 19 Noroeste 0 929.9 -- 21
2020-05-21 18:00:00 29.8 5 Oeste 17 Noroeste 0 929.8 -- 15
2020-05-21 17:00:00 31 5 Sudoeste 17 Oeste 0 929.9 -- 16
2020-05-21 16:00:00 29.7 4 Oeste 17 Sudoeste 0 930.2 -- 16
2020-05-21 15:00:00 27.4 4 Oeste 18 Noroeste 0 930.4 -- 20
2020-05-21 14:00:00 27.1 5 Sudoeste 15 Oeste 0 930.7 -- 16
2020-05-21 13:00:00 26.2 3 Sudoeste 13 Sudoeste 0 931.1 0 26
2020-05-21 12:00:00 24.4 3 Sudoeste 10 Oeste 0 931.2 -- 34
2020-05-21 11:00:00 20.9 2 Oeste 8 Sudoeste 0 931.3 -- 40
2020-05-21 10:00:00 17.4 3 Nordeste 10 Sudeste 0 931.1 -- 51
2020-05-21 09:00:00 13.9 4 Este 9 Sudeste 0 931 -- 61
2020-05-21 08:00:00 10 3 Este 7 Sudeste 0 930.9 -- 74
2020-05-21 07:00:00 7.6 0 Calma 4 Este 0 930.4 -- 81
2020-05-21 06:00:00 7.6 0 Calma 3 Este 0 930.1 -- 82
2020-05-21 05:00:00 7.9 0 Calma 3 Este 0 929.9 -- 80
2020-05-21 04:00:00 8.6 0 Calma 6 Este 0 929.6 -- 78
2020-05-21 03:00:00 9.2 0 Calma 5 Sudeste 0 929.6 -- 75
2020-05-21 02:00:00 10.3 0 Calma 5 Oeste 0 929.7 -- 73
2020-05-21 01:00:00 11.4 0 Calma 5 Este 0 929.4 -- 71
2020-05-21 00:00:00 13.1 2 Este 6 Este 0 929.2 -- 64
2020-05-20 23:00:00 15.3 0 Calma 4 Sudoeste 0 929 -- 55
2020-05-20 22:00:00 19.2 3 Sudoeste 5 Noroeste 0 928.2 -- 44
2020-05-20 21:00:00 23.2 4 Noroeste 16 Noroeste 0 927.6 -- 24
2020-05-20 20:00:00 24.5 7 Norte 18 Norte 0 927.1 -- 18
2020-05-20 19:00:00 25.5 8 Noroeste 22 Noroeste 0 927 -- 16
2020-05-20 18:00:00 26.6 11 Noroeste 26 Noroeste 0 927 -- 15
2020-05-20 17:00:00 27.9 4 Oeste 21 Nordeste 0 927 -- 17
2020-05-20 16:00:00 26.8 5 Oeste 21 Noroeste 0 927.4 -- 15
2020-05-20 15:00:00 25.8 3 Oeste 19 Sudoeste 0 927.6 -- 26
2020-05-20 14:00:00 25.4 5 Sudoeste 21 Oeste 0 928 -- 23
2020-05-20 13:00:00 24.3 5 Sudoeste 16 Oeste 0 928.6 -- 25
2020-05-20 12:00:00 22.3 4 Sudoeste 11 Sudoeste 0 928.9 -- 34
2020-05-20 11:00:00 19.4 5 Sudoeste 12 Sudoeste 0 929 -- 42
2020-05-20 10:00:00 15 2 Este 7 Norte 0 929.1 -- 58
2020-05-20 09:00:00 13 0 Calma 6 Este 0 929.1 -- 61
2020-05-20 08:00:00 8.3 2 Este 4 Este 0 928.9 -- 71
2020-05-20 07:00:00 4.3 0 Calma 4 Este 0 928.7 -- 83
2020-05-20 06:00:00 5.1 0 Calma 3 Sudoeste 0 928.6 -- 82
2020-05-20 05:00:00 5.8 0 Calma 3 Este 0 928.8 -- 80
2020-05-20 04:00:00 6.8 0 Calma 4 Sudeste 0 929 -- 80
2020-05-20 03:00:00 7.8 0 Calma 3 Sudeste 0 929.1 -- 79
2020-05-20 02:00:00 8.9 2 Sudeste 4 Oeste 0 929.6 -- 76
2020-05-20 01:00:00 10.6 0 Calma 5 Sudoeste 0 929.7 -- 70
2020-05-20 00:00:00 13.2 2 Sudoeste -- -- -- 929.7 -- 63
2020-05-19 23:00:00 -- -- -- -- -- -- -- -- --
2020-05-19 22:00:00 -- -- -- -- -- -- -- -- --
2020-05-19 21:00:00 -- -- -- -- -- -- -- -- --
2020-05-19 20:00:00 -- -- -- -- -- -- -- -- --
2020-05-19 19:00:00 -- -- -- -- -- -- -- -- --
2020-05-19 18:00:00 25.9 -- -- -- -- -- 928.7 -- 26
2020-05-19 17:00:00 -- -- -- -- -- -- -- -- --
2020-05-19 16:00:00 25 -- -- -- -- -- 929.3 -- 34
2020-05-19 15:00:00 -- -- -- -- -- -- -- -- --
2020-05-19 14:00:00 -- -- -- -- -- -- -- -- --
2020-05-19 13:00:00 23.1 -- -- -- -- -- 931 -- 31
2020-05-19 12:00:00 -- -- -- -- -- -- -- -- --
2020-05-19 11:00:00 17.2 4 Sudoeste 13 Sudoeste 0 931.6 -- 45
2020-05-19 10:00:00 16.5 5 Sudoeste 11 Sudoeste 0 931.7 -- 46
2020-05-19 09:00:00 12.8 2 Nordeste 5 Este 0 931.6 -- 59
2020-05-19 08:00:00 9.3 0 Calma 3 Sudeste 0 931.6 -- 69
2020-05-19 07:00:00 5.9 0 Calma 4 Sudoeste 0 931.5 -- 81
2020-05-19 06:00:00 6.5 0 Calma 7 Sudoeste 0 931.4 -- 77
2020-05-19 05:00:00 6.7 2 Oeste 6 Oeste 0 931.7 -- 76
2020-05-19 04:00:00 8 2 Sudoeste 5 Sudoeste 0 931.8 -- 71
2020-05-19 03:00:00 9.3 3 Sudoeste 5 Sudoeste 0 932.2 -- 67
2020-05-19 02:00:00 11.8 3 Noroeste 9 Norte 0 932.4 -- 57
2020-05-19 01:00:00 13 5 Noroeste 20 Noroeste 0 932.4 -- 52
2020-05-19 00:00:00 13.6 3 Oeste 11 Sudoeste 0 932.5 -- 60
2020-05-18 23:00:00 15.7 3 Sudoeste 15 Noroeste 0 932.4 -- 52
2020-05-18 22:00:00 17.5 5 Norte 26 Norte 0 931.8 -- 42
2020-05-18 21:00:00 19.5 13 Norte 33 Norte 0 931.5 -- 34
2020-05-18 20:00:00 20.9 14 Norte 33 Noroeste 0 931.3 -- 36
2020-05-18 19:00:00 21.7 19 Norte 38 Norte 0 931.4 -- 32
2020-05-18 18:00:00 23.1 14 Norte 37 Noroeste 0 931.5 -- 29
2020-05-18 17:00:00 23.5 11 Noroeste 32 Norte 0 931.8 -- 27
2020-05-18 16:00:00 22.9 10 Noroeste 26 Noroeste 0 932.1 -- 26
2020-05-18 15:00:00 21.8 9 Norte 23 Noroeste 0 932.5 -- 29
2020-05-18 14:00:00 21.4 4 Oeste 17 Sudoeste 0 932.8 -- 32
2020-05-18 13:00:00 20 5 Sudoeste 20 Sudoeste 0 933.4 -- 40
2020-05-18 12:00:00 17.3 7 Sudoeste 16 Sudoeste 0 933.7 -- 42
2020-05-18 11:00:00 15.7 4 Oeste 15 Sudoeste 0 933.9 -- 46
2020-05-18 10:00:00 14.1 4 Sudoeste 12 Sudoeste 0 934 -- 54
2020-05-18 09:00:00 11.2 3 Oeste 8 Oeste 0 933.8 -- 61
2020-05-18 08:00:00 6.9 0 Calma 4 Nordeste 0 933.5 -- 79
2020-05-18 07:00:00 3.6 0 Calma 3 Sudoeste 0 933.1 -- 83
2020-05-18 06:00:00 4.1 0 Calma 4 Sudoeste 0 932.8 -- 83
2020-05-18 05:00:00 4.9 2 Sudoeste 6 Sudoeste 0 932.7 -- 82
2020-05-18 04:00:00 5.6 0 Calma 4 Sudoeste 0 932.7 -- 82
2020-05-18 03:00:00 6.4 2 Sudoeste 7 Sudoeste 0 932.9 -- 79
2020-05-18 02:00:00 7.5 3 Sudoeste 6 Sudoeste 0 933 -- 77
2020-05-18 01:00:00 8.8 3 Sudoeste 5 Sudoeste 0 933 -- 72
2020-05-18 00:00:00 10.7 4 Sudoeste 8 Sudoeste 0 932.9 -- 66
2020-05-17 23:00:00 12.9 5 Sudoeste 14 Noroeste 0 932.6 -- 58
2020-05-17 22:00:00 15 2 Oeste 13 Noroeste 0 931.8 -- 49
2020-05-17 21:00:00 17 5 Noroeste 22 Noroeste 0 931.6 -- 42
2020-05-17 20:00:00 18.1 12 Noroeste 26 Noroeste 0 931.3 -- 33
2020-05-17 19:00:00 19 8 Noroeste 26 Noroeste 0 931.1 -- 33
2020-05-17 18:00:00 20.1 9 Noroeste 20 Noroeste 0 931.1 -- 30
2020-05-17 17:00:00 21.1 4 Oeste 19 Noroeste 0 931.1 -- 30
2020-05-17 16:00:00 19.5 4 Oeste 19 Noroeste 0 931.5 -- 34
2020-05-17 15:00:00 19 6 Sudoeste 21 Oeste 0 932 -- 34
2020-05-17 14:00:00 18.2 4 Sudoeste 18 Oeste 0 932.4 -- 38
2020-05-17 13:00:00 17.6 4 Sur 12 Sudoeste 0 932.7 -- 40
2020-05-17 12:00:00 16.4 5 Noroeste 17 Sudoeste 0 932.8 -- 44
2020-05-17 11:00:00 15.8 3 Sudoeste 10 Sudoeste 0 932.8 -- 44
2020-05-17 10:00:00 13.1 5 Sudoeste 10 Sudoeste 0 932.9 -- 54
2020-05-17 09:00:00 9.7 3 Sudoeste 8 Oeste 0 932.5 -- 64
2020-05-17 08:00:00 5.4 0 Calma 3 Este 0 932.2 -- 80
2020-05-17 07:00:00 2.6 0 Calma 4 Este 0 931.8 -- 84
2020-05-17 06:00:00 3.2 0 Calma 4 Sudoeste 0 931.8 -- 83
2020-05-17 05:00:00 3.9 0 Calma 6 Sudoeste 0 931.6 -- 82
2020-05-17 04:00:00 4.6 0 Calma 5 Sudoeste 0 931.5 -- 81
2020-05-17 03:00:00 5.6 3 Sudoeste 7 Oeste 0 931.8 -- 80
2020-05-17 02:00:00 6.5 2 Sudoeste 7 Nordeste 0 932.1 -- 76
2020-05-17 01:00:00 7.9 4 Norte 8 Noroeste 0 931.8 -- 74
2020-05-17 00:00:00 8.7 3 Norte 13 Norte 0 931.6 -- 72
2020-05-16 23:00:00 9.5 4 Noroeste 17 Noroeste 0 931.2 -- 67
2020-05-16 22:00:00 11 9 Norte 25 Norte 0 930.5 -- 59
2020-05-16 21:00:00 12.9 10 Nordeste 34 Norte 0 929.8 -- 51
2020-05-16 20:00:00 14 13 Norte 33 Nordeste 0 929.2 -- 52
2020-05-16 19:00:00 15 13 Norte 31 Norte 0 928.8 -- 51
2020-05-16 18:00:00 16.1 10 Norte 24 Norte 0 928.3 -- 51
2020-05-16 17:00:00 16.1 12 Norte 30 Nordeste 0 928.2 -- 50
2020-05-16 16:00:00 15.9 8 Norte 24 Nordeste 0 928.4 -- 50
2020-05-16 15:00:00 15.7 8 Norte 23 Nordeste 0 928.5 -- 50
2020-05-16 14:00:00 16.3 8 Nordeste 24 Este 0 928.8 -- 48
2020-05-16 13:00:00 15 10 Nordeste 22 Nordeste 0 929.1 -- 50
2020-05-16 12:00:00 14.3 8 Nordeste 18 Norte 0 929 -- 52
2020-05-16 11:00:00 12.9 6 Este 14 Este 0 928.8 -- 58
2020-05-16 10:00:00 10 3 Norte 8 Nordeste 0 928.7 -- 72
2020-05-16 09:00:00 8.3 0 Calma 4 Sudoeste 0 928.3 -- 80
2020-05-16 08:00:00 7 0 Calma 5 Sudoeste 0 927.8 -- 81
2020-05-16 07:00:00 7.6 0 Calma 8 Nordeste 0 927.2 -- 79
2020-05-16 06:00:00 7.6 0 Calma 5 Este 0 927.1 -- 79
2020-05-16 05:00:00 7.6 3 Este 5 Este 0 926.8 -- 77
2020-05-16 04:00:00 7.6 0 Calma 9 Norte 0 926.9 -- 74
2020-05-16 03:00:00 7.7 4 Nordeste 9 Norte 0 926.9 -- 75
2020-05-16 02:00:00 7.8 3 Nordeste 11 Norte 0 927.1 -- 73
2020-05-16 01:00:00 7.9 3 Norte 8 Nordeste 0 927.2 -- 75
2020-05-16 00:00:00 8.4 3 Nordeste 15 Norte 0 926.9 -- 72
2020-05-15 23:00:00 10.1 6 Norte 14 Nordeste 0 926.4 -- 68
2020-05-15 22:00:00 10.8 5 Nordeste 21 Norte 0 925.5 -- 66
2020-05-15 21:00:00 11.3 7 Norte 25 Nordeste 0 924.9 -- 66
2020-05-15 20:00:00 12.2 12 Norte 31 Norte 0 924.3 -- 66
2020-05-15 19:00:00 12.2 8 Norte 24 Noroeste 0.2 923.9 -- 68
2020-05-15 18:00:00 13.7 6 Nordeste 17 Este 0 923.6 -- 61
2020-05-15 17:00:00 13.7 6 Nordeste 29 Norte 0 923.6 -- 62
2020-05-15 16:00:00 14.2 10 Norte 29 Norte 0 923.7 -- 60
2020-05-15 15:00:00 13.5 11 Norte 29 Norte 0 923.9 -- 61
2020-05-15 14:00:00 13.9 8 Norte 23 Noroeste 0 923.9 -- 60
2020-05-15 13:00:00 13.1 8 Norte 19 Norte 0 924.1 -- 62
2020-05-15 12:00:00 12.8 5 Nordeste 14 Norte 0 924 -- 63
2020-05-15 11:00:00 11.8 3 Este 11 Este 0 923.8 -- 67
2020-05-15 10:00:00 10.1 4 Nordeste 13 Este 0 923.6 -- 72
2020-05-15 09:00:00 9.5 0 Calma 12 Nordeste 0 923 -- 76
2020-05-15 08:00:00 8.2 3 Norte 11 Norte 0 922.4 -- 79
2020-05-15 07:00:00 7.6 0 Calma 9 Este 0 921.6 -- 80
2020-05-15 06:00:00 8.2 4 Nordeste 16 Noroeste 0 921.1 -- 78
2020-05-15 05:00:00 8.3 2 Noroeste 12 Norte 0 920.9 -- 78
2020-05-15 04:00:00 8.8 3 Noroeste 9 Noroeste 0 920.7 -- 78
2020-05-15 03:00:00 9.1 3 Norte 9 Nordeste 0 920.5 -- 77
2020-05-15 02:00:00 9.9 3 Noroeste 10 Noroeste 0 920.4 -- 79
2020-05-15 01:00:00 10.4 0 Calma 5 Oeste 0 920.1 -- 82
2020-05-15 00:00:00 10.6 2 Oeste 8 Oeste 0 920 -- 82
2020-05-14 23:00:00 10.8 2 Oeste 7 Norte 0 919.5 -- 80
2020-05-14 22:00:00 11.1 5 Noroeste 13 Noroeste 0.2 918.7 -- 78
2020-05-14 21:00:00 12.7 3 Sudoeste 14 Sudoeste 0 917.9 -- 66
2020-05-14 20:00:00 13.3 4 Sudoeste 11 Sudoeste 0 917.2 -- 63
2020-05-14 19:00:00 13.3 0 Calma 10 Noroeste 0 916.8 -- 64
2020-05-14 18:00:00 13.6 5 Sudoeste 13 Oeste 0 916.5 -- 58
2020-05-14 17:00:00 12.8 5 Oeste 17 Oeste 0 916.4 -- 61
2020-05-14 16:00:00 13.1 7 Sudoeste 35 Oeste 0 916.2 -- 56
2020-05-14 15:00:00 13 10 Sudoeste 31 Sudoeste 0 916.1 -- 56
2020-05-14 14:00:00 12.6 14 Sudoeste 41 Sudoeste 0 916.1 -- 62
2020-05-14 13:00:00 11.9 14 Sudoeste 40 Sudoeste 0 915.6 -- 65
2020-05-14 12:00:00 12.7 13 Sudoeste 28 Sudoeste 0 915 -- 71
2020-05-14 11:00:00 12.2 8 Sur 30 Este 0 914.8 -- 73
2020-05-14 10:00:00 11.6 12 Este 23 Este 0 914.3 -- 75
2020-05-14 09:00:00 10 10 Este 28 Este 0 914.1 -- 79
2020-05-14 08:00:00 9.4 10 Este 22 Este 0 913.9 -- 81
2020-05-14 07:00:00 9 4 Este 15 Sudeste 0 914 -- 83
2020-05-14 06:00:00 9.1 5 Este 12 Sudeste 0 913.6 -- 83
2020-05-14 05:00:00 9.3 3 Este 13 Sudeste 0 913.9 -- 83
2020-05-14 04:00:00 9.4 6 Este 11 Este 0 914.3 -- 84
2020-05-14 03:00:00 9.3 3 Este 7 Sudeste 0 915.4 -- 84
2020-05-14 02:00:00 9.8 4 Este 8 Sudeste 0 915.2 -- 84
2020-05-14 01:00:00 10.5 2 Sudeste 5 Sudeste 0 915.4 -- 81
2020-05-14 00:00:00 11.4 2 Este 6 Este 0 915.8 -- 79
2020-05-13 23:00:00 12.1 0 Calma 8 Norte 0 916 -- 77
2020-05-13 22:00:00 12.2 2 Oeste 15 Noroeste 0 916 -- 76
2020-05-13 21:00:00 14.2 6 Sudoeste 18 Oeste 0 915.4 -- 67
2020-05-13 20:00:00 16 2 Este 17 Este 0 914.6 -- 56
2020-05-13 19:00:00 17.1 6 Este 20 Noroeste 0 914.6 -- 48
2020-05-13 18:00:00 17.8 10 Norte 18 Noroeste 0 914.8 -- 52
2020-05-13 17:00:00 17.5 3 Norte 12 Sudoeste 0 915 -- 51
2020-05-13 16:00:00 18 5 Sur 17 Sudoeste 0 915.3 -- 49
2020-05-13 15:00:00 16.5 3 Norte 19 Sudoeste 0 915.7 -- 53
2020-05-13 14:00:00 15.6 5 Sudoeste 23 Sudoeste 0 916.1 -- 58
2020-05-13 13:00:00 15.6 10 Sudoeste 29 Sudoeste 0 916.2 -- 59
2020-05-13 12:00:00 13.3 6 Sudoeste 18 Oeste 0 916.4 -- 68
2020-05-13 11:00:00 12.4 3 Oeste 14 Sudoeste 0 916.4 -- 73
2020-05-13 10:00:00 10.9 4 Sudoeste 12 Sudoeste 0 916.1 -- 82
2020-05-13 09:00:00 9.9 4 Sudoeste 16 Oeste 0 915.9 -- 86
2020-05-13 08:00:00 9.3 2 Sudoeste 10 Oeste 0 915.8 -- 87
2020-05-13 07:00:00 9 3 Sudoeste 11 Oeste 0 915.5 -- 87
2020-05-13 06:00:00 8.6 3 Sudoeste 8 Sudoeste 0 915.3 -- 86
2020-05-13 05:00:00 8.5 2 Noroeste 8 Oeste 0 915.2 -- 86
2020-05-13 04:00:00 8.8 2 Oeste 10 Oeste 0 915.1 -- 87
2020-05-13 03:00:00 9 3 Oeste 11 Oeste 0 915.1 -- 87
2020-05-13 02:00:00 9.1 3 Sudoeste 11 Oeste 0 915.7 -- 86
2020-05-13 01:00:00 9.3 0 Calma 7 Oeste 1.2 916.1 -- 85
2020-05-13 00:00:00 9.6 3 Norte 17 Oeste 3.6 916.8 -- 84
2020-05-12 23:00:00 10.2 5 Sudoeste 15 Oeste 1.8 916.9 -- 85
2020-05-12 22:00:00 10.7 3 Norte 11 Noroeste 2.2 916.9 -- 84
2020-05-12 21:00:00 11.4 2 Oeste 8 Noroeste 0.4 916.8 -- 83
2020-05-12 20:00:00 11.7 4 Noroeste 16 Sudoeste 1 916.8 -- 80
2020-05-12 19:00:00 12 3 Sur 25 Sudoeste 0 916.7 -- 76
2020-05-12 18:00:00 11.8 3 Oeste 14 Sudeste 0 916.5 -- 81
2020-05-12 17:00:00 10.8 7 Noroeste 24 Noroeste 8.8 917.1 -- 78
2020-05-12 16:00:00 12.4 13 Sudeste 45 Sudeste 0 918.2 -- 70
2020-05-12 15:00:00 17 5 Nordeste 19 Este 0 918.1 -- 54
2020-05-12 14:00:00 16.2 9 Este 21 Sudeste 0 919 -- 57
2020-05-12 13:00:00 15.7 5 Sudeste 15 Sudeste 0 919.6 -- 63
2020-05-12 12:00:00 13.8 7 Este 13 Este 0 920 -- 69
2020-05-12 11:00:00 12.4 5 Este 12 Este 0 920.3 -- 79
2020-05-12 10:00:00 11.3 5 Este 10 Este 0 920.4 -- 83
2020-05-12 09:00:00 10.5 5 Este 9 Este 0 920.8 -- 85
2020-05-12 08:00:00 10 4 Norte 8 Norte 0.2 920.6 -- 87
2020-05-12 07:00:00 9 2 Norte 5 Sudeste 0 920.7 -- 86
2020-05-12 06:00:00 8.7 2 Sudeste 7 Sudeste 0 919.3 -- 85
2020-05-12 05:00:00 9.3 0 Calma 7 Sudeste 0 920.2 -- 84
2020-05-12 04:00:00 10.2 0 Calma 7 Sudeste 0 920.8 -- 84
2020-05-12 03:00:00 10.7 2 Sudeste 5 Este 0 921.4 -- 84
2020-05-12 02:00:00 10.5 2 Este 5 Norte 0 921.6 -- 84
2020-05-12 01:00:00 10.3 0 Calma 6 Este 0 921.5 -- 85
2020-05-12 00:00:00 9.8 2 Este 7 Norte 0.2 921.2 -- 84
2020-05-11 23:00:00 10.2 4 Norte 8 Norte 0 920.7 -- 82
2020-05-11 22:00:00 11.8 0 Calma 6 Sudoeste 0 920.4 -- 77
2020-05-11 21:00:00 12.9 0 Calma 12 Sudoeste 0.2 919.6 -- 75
2020-05-11 20:00:00 13.4 6 Sudoeste 28 Sudoeste 0 919.5 -- 72
2020-05-11 19:00:00 15.4 2 Sur 36 Sudoeste 0.2 919.1 -- 65
2020-05-11 18:00:00 16.4 12 Sudoeste 26 Sudoeste 0 918.8 -- 55
2020-05-11 17:00:00 19.1 6 Noroeste 23 Oeste 0 918.2 -- 39
2020-05-11 16:00:00 17.5 8 Oeste 28 Oeste 0 918.7 -- 44
2020-05-11 15:00:00 17.1 5 Sudoeste 17 Oeste 0 918.5 -- 50
2020-05-11 14:00:00 16.3 4 Oeste 19 Sudoeste 0 918.7 -- 53
2020-05-11 13:00:00 16 5 Oeste 21 Sudoeste 0 918.7 -- 52
2020-05-11 12:00:00 15.2 8 Sudoeste 21 Sudoeste 0 918.8 -- 55
2020-05-11 11:00:00 14 5 Oeste 22 Oeste 0 918.7 -- 60
2020-05-11 10:00:00 13.5 10 Sudoeste 28 Sudoeste 0 918.6 -- 61
2020-05-11 09:00:00 11.5 9 Sudoeste 27 Sudoeste 0 918 -- 66
2020-05-11 08:00:00 9.2 7 Sudoeste 26 Sudoeste 0 917.8 -- 76
2020-05-11 07:00:00 9.8 8 Sudoeste 20 Oeste 0 917.1 -- 75
2020-05-11 06:00:00 9.8 7 Sudoeste 24 Sudoeste 0 917.2 -- 75
2020-05-11 05:00:00 10.3 5 Sudoeste 19 Sudoeste 0 917 -- 74
2020-05-11 04:00:00 10.7 6 Sudoeste 31 Sudoeste 0 917 -- 73
2020-05-11 03:00:00 11.1 12 Sudoeste 28 Sudoeste 0 917.3 -- 71
2020-05-11 02:00:00 11.9 8 Sudoeste 21 Sudoeste 0 917.5 -- 64
2020-05-11 01:00:00 12.1 4 Sudoeste 19 Noroeste 0 917.6 -- 73
2020-05-11 00:00:00 12.5 6 Noroeste 24 Noroeste 0 917.7 -- 72
2020-05-10 23:00:00 13 0 Calma 9 Noroeste 0 917.5 -- 69
2020-05-10 22:00:00 13.4 3 Norte 15 Noroeste 0 916.8 -- 66
2020-05-10 21:00:00 14.9 8 Noroeste 28 Oeste 0 916.2 -- 57
2020-05-10 20:00:00 17 9 Oeste 29 Oeste 0 915.6 -- 36
2020-05-10 19:00:00 16.9 8 Oeste 36 Sudoeste 0 915.5 -- 37
2020-05-10 18:00:00 18.4 11 Sudoeste 35 Oeste 0 915.7 -- 32
2020-05-10 17:00:00 18.4 10 Sudoeste 39 Oeste 0 916 -- 33
2020-05-10 16:00:00 17.5 14 Sudoeste 35 Sudoeste 0 916 -- 40
2020-05-10 15:00:00 15.9 8 Sudoeste 28 Oeste 0 916.4 -- 42
2020-05-10 14:00:00 15.3 8 Sudoeste 26 Sudoeste 0 916.9 -- 46
2020-05-10 13:00:00 13 6 Oeste 32 Oeste 0 917.2 -- 62
2020-05-10 12:00:00 14.1 10 Sudoeste 34 Sudoeste 0 916.9 -- 58
2020-05-10 11:00:00 12.3 6 Sudoeste 24 Oeste 0 917.3 -- 69
2020-05-10 10:00:00 10.9 6 Oeste 27 Oeste 0 917.6 -- 77
2020-05-10 09:00:00 10.1 7 Sudoeste 21 Sudoeste 0 917.1 -- 82
2020-05-10 08:00:00 9.8 3 Sudoeste 7 Sudoeste 0 917.1 -- 85
2020-05-10 07:00:00 9.7 2 Oeste 10 Noroeste 0.6 916.8 -- 84
2020-05-10 06:00:00 10.2 3 Oeste 15 Oeste 0.4 917.2 -- 85
2020-05-10 05:00:00 10.3 4 Oeste 16 Oeste 0.6 917 -- 84
2020-05-10 04:00:00 10.9 5 Sudoeste 17 Oeste 0.4 917.5 -- 82
2020-05-10 03:00:00 11.7 3 Sudoeste 14 Oeste 1.2 917.6 -- 80
2020-05-10 02:00:00 12.8 6 Oeste 18 Sudoeste 0 917.8 -- 68
2020-05-10 01:00:00 12.8 0 Calma 6 Oeste 0 917.8 -- 73
2020-05-10 00:00:00 14.2 3 Oeste 9 Oeste 0 918.2 -- 68
2020-05-09 23:00:00 14.6 3 Oeste 8 Sudoeste 0 918.5 -- 70
2020-05-09 22:00:00 15.5 0 Calma 8 Oeste 0 917.8 -- 64
2020-05-09 21:00:00 17 4 Sudoeste 12 Oeste 0 917.3 -- 60
2020-05-09 20:00:00 19 4 Oeste 21 Oeste 0 917.2 -- 51
2020-05-09 19:00:00 20.8 6 Oeste 28 Oeste 0 917.5 -- 48
2020-05-09 18:00:00 22.3 9 Sudoeste 33 Sudoeste 0 917.6 -- 30
2020-05-09 17:00:00 22.5 14 Sudoeste 34 Sudoeste 0 918.4 -- 31
2020-05-09 16:00:00 20.8 4 Oeste 15 Noroeste 0 919 -- 48
2020-05-09 15:00:00 20.6 3 Oeste 20 Sudoeste 0 919.5 -- 49
2020-05-09 14:00:00 20.8 4 Oeste 20 Sudoeste 0 920 -- 51
2020-05-09 13:00:00 20.2 5 Sudoeste 21 Oeste 0 920.5 -- 52
2020-05-09 12:00:00 19 6 Sudoeste 20 Oeste 0 921 -- 57
2020-05-09 11:00:00 19.7 3 Sudoeste 13 Oeste 0 921.3 -- 55
2020-05-09 10:00:00 15.2 4 Este 11 Sudeste 0 921.4 -- 71
2020-05-09 09:00:00 13.1 3 Sudeste 8 Este 0 921.5 -- 77
2020-05-09 08:00:00 10.1 0 Calma 12 Este 0 921.1 -- 86
2020-05-09 07:00:00 9.8 5 Este 9 Este 0 921.3 -- 87
2020-05-09 06:00:00 9.7 3 Este 6 Este 0 921.5 -- 86
2020-05-09 05:00:00 10 0 Calma 3 Sudoeste 0 922 -- 85
2020-05-09 04:00:00 10.4 0 Calma 3 Este 0 922.1 -- 84
2020-05-09 03:00:00 11.1 0 Calma 4 Nordeste 0 922.5 -- 83
2020-05-09 02:00:00 11.9 0 Calma 3 Este 0 922.6 -- 82
2020-05-09 01:00:00 12.8 2 Sudeste 4 Nordeste 0 922.7 -- 83
2020-05-09 00:00:00 13.4 3 Oeste 8 Oeste 0 922.9 -- 80
2020-05-08 23:00:00 14.8 0 Calma 10 Sudeste 0 922.7 -- 76
2020-05-08 22:00:00 15.8 5 Este 14 Sudoeste 0 922.5 -- 70
2020-05-08 21:00:00 17.4 5 Norte 16 Noroeste 0 922.5 -- 65
2020-05-08 20:00:00 19.1 6 Este 14 Norte 0 921.5 -- 64
2020-05-08 19:00:00 19.9 5 Nordeste 14 Este 0 922 -- 66
2020-05-08 18:00:00 19.2 5 Este 33 Sudeste 0.2 922 -- 62
2020-05-08 17:00:00 24.8 6 Norte 17 Noroeste 0 922.3 -- 41
2020-05-08 16:00:00 23.2 6 Norte 11 Norte 0 923.4 -- 46
2020-05-08 15:00:00 22.6 4 Este 15 Sudeste 0 924 -- 47
2020-05-08 14:00:00 21.9 4 Sudeste 17 Sudeste 0 924.5 -- 48
2020-05-08 13:00:00 20.2 5 Sudeste 15 Este 0 925.1 -- 53
2020-05-08 12:00:00 17.2 7 Nordeste 18 Este 0 925.8 -- 69
2020-05-08 11:00:00 15.9 6 Nordeste 15 Este 0 926.3 -- 71
2020-05-08 10:00:00 13.2 6 Nordeste 67 Noroeste 3.2 926.2 -- 83
2020-05-08 09:00:00 13 8 Este 20 Sudeste 0.4 925.7 -- 83
2020-05-08 08:00:00 13.1 9 Sudeste 19 Oeste 2.6 925.5 -- 84
2020-05-08 07:00:00 13.5 6 Oeste 27 Nordeste 2.2 925.7 -- 80
2020-05-08 06:00:00 14.8 0 Calma 22 Sudeste 0.2 926.1 -- 72
2020-05-08 05:00:00 15.6 5 Nordeste 13 Sudoeste 0 924.7 -- 58
2020-05-08 04:00:00 16 6 Este 14 Este 0 924.3 -- 58
2020-05-08 03:00:00 17 6 Nordeste 13 Norte 0 924.9 -- 59
2020-05-08 02:00:00 17.4 3 Este 8 Noroeste 0 925.5 -- 60
2020-05-08 01:00:00 18.6 3 Nordeste 22 Este 0 925.4 -- 56
2020-05-08 00:00:00 19.6 5 Sudeste 17 Este 0 925 -- 50
2020-05-07 23:00:00 20.1 4 Este 14 Sudeste 0 925 -- 50
2020-05-07 22:00:00 21.1 0 Calma 18 Sudoeste 0 925 -- 46
2020-05-07 21:00:00 22.4 4 Sudeste 15 Sudeste 0 924.8 -- 42
2020-05-07 20:00:00 24 4 Sur 23 Sudoeste 0 924.5 -- 34
2020-05-07 19:00:00 25.9 12 Sur 32 Sur 0 924.2 -- 27
2020-05-07 18:00:00 25.9 10 Sur 30 Sur 0 924.2 -- 28
2020-05-07 17:00:00 26.1 9 Sur 35 Sudeste 0 924.1 -- 30
2020-05-07 16:00:00 27.8 7 Sur 26 Sudoeste 0 924.3 -- 25
2020-05-07 15:00:00 25.8 6 Este 21 Sudeste 0 925 -- 29
2020-05-07 14:00:00 25.5 6 Sur 21 Sur 0 925.8 -- 28
2020-05-07 13:00:00 23.2 11 Este 21 Sudeste 0 926.2 -- 45
2020-05-07 12:00:00 22.1 11 Sudeste 28 Este 0 926.5 -- 44
2020-05-07 11:00:00 18.6 10 Este 25 Este 0 926.5 -- 52
2020-05-07 10:00:00 16.8 11 Este 24 Este 0 927.1 -- 50
2020-05-07 09:00:00 13.5 9 Este 25 Sudeste 0 926.9 -- 64
2020-05-07 08:00:00 11.9 11 Este 26 Este 0 926.7 -- 68
2020-05-07 07:00:00 10.7 8 Este 19 Este 0 926.6 -- 69
2020-05-07 06:00:00 11.5 8 Este 26 Este 0 926.5 -- 63
2020-05-07 05:00:00 10.3 5 Este 15 Este 0 926.9 -- 71
2020-05-07 04:00:00 10.7 5 Este 15 Este 0 927.7 -- 71
2020-05-07 03:00:00 10.6 5 Este 8 Este 0 928.1 -- 74
2020-05-07 02:00:00 11.2 0 Calma 5 Noroeste 0 928.5 -- 73
2020-05-07 01:00:00 12 2 Este 6 Sudoeste 0 928.4 -- 70
2020-05-07 00:00:00 13.5 0 Calma 6 Sudoeste 0 928.5 -- 62
2020-05-06 23:00:00 15.8 0 Calma 7 Nordeste 0 928.1 -- 53
2020-05-06 22:00:00 18 0 Calma 12 Norte 0 927.6 -- 42
2020-05-06 21:00:00 20.2 6 Noroeste 16 Noroeste 0 927.4 -- 32
2020-05-06 20:00:00 21.6 7 Noroeste 14 Noroeste 0 927 -- 30
2020-05-06 19:00:00 22.8 4 Oeste 14 Noroeste 0 926.9 -- 25
2020-05-06 18:00:00 23.1 5 Noroeste 13 Noroeste 0 927 -- 23
2020-05-06 17:00:00 22.6 4 Nordeste 18 Noroeste 0 927.3 -- 27
2020-05-06 16:00:00 22.3 4 Norte 12 Este 0 927.8 -- 26
2020-05-06 15:00:00 21.2 5 Este 15 Este 0 928 -- 25
2020-05-06 14:00:00 21 4 Sudeste 16 Este 0 928.6 -- 32
2020-05-06 13:00:00 20.9 3 Sudoeste 10 Noroeste 0 929.1 -- 33
2020-05-06 12:00:00 19 3 Norte 9 Sudoeste 0 929.1 -- 42
2020-05-06 11:00:00 18 3 Sudoeste 7 Sudoeste 0 929.3 -- 47
2020-05-06 10:00:00 13.8 2 Norte 8 Sudeste 0 929.2 -- 60
2020-05-06 09:00:00 10.4 3 Este 6 Sudeste 0 929 -- 68
2020-05-06 08:00:00 7.4 0 Calma 4 Sudeste 0 928.7 -- 80
2020-05-06 07:00:00 5.1 0 Calma 3 Este 0 928.1 -- 83
2020-05-06 06:00:00 5.6 0 Calma 4 Este 0 927.9 -- 82
2020-05-06 05:00:00 6.1 2 Este 4 Este 0 927.8 -- 80
2020-05-06 04:00:00 6.7 0 Calma 4 Sudoeste 0 927.6 -- 77
2020-05-06 03:00:00 7.4 0 Calma 3 Sudoeste 0 927.5 -- 75
2020-05-06 02:00:00 8.4 0 Calma 3 Este 0 927.8 -- 71
2020-05-06 01:00:00 9.3 2 Sudoeste 5 Sudoeste 0 928 -- 69
2020-05-06 00:00:00 10.7 2 Sudoeste 6 Este 0 927.8 -- 64
2020-05-05 23:00:00 12.7 0 Calma 5 Sudoeste 0 927.4 -- 56
2020-05-05 22:00:00 15.6 0 Calma 9 Norte 0 926.6 -- 46
2020-05-05 21:00:00 18.1 5 Norte 15 Noroeste 0 926 -- 32
2020-05-05 20:00:00 19.6 5 Noroeste 23 Oeste 0 925.8 -- 28
2020-05-05 19:00:00 20.5 6 Oeste 31 Oeste 0 925.6 -- 25
2020-05-05 18:00:00 22.2 8 Oeste 31 Oeste 0 925.6 -- 22
2020-05-05 17:00:00 22.7 6 Sudoeste 28 Oeste 0 925.7 -- 25
2020-05-05 16:00:00 22 6 Oeste 27 Oeste 0 926.1 -- 23
2020-05-05 15:00:00 19.9 6 Oeste 23 Norte 0 926.3 -- 31
2020-05-05 14:00:00 19.5 5 Oeste 21 Oeste 0 926.7 -- 35
2020-05-05 13:00:00 19.5 6 Oeste 20 Noroeste 0 926.9 -- 39
2020-05-05 12:00:00 17.7 4 Oeste 17 Sudoeste 0 927.1 -- 44
2020-05-05 11:00:00 15.5 5 Sudoeste 14 Sudoeste 0 926.6 -- 51
2020-05-05 10:00:00 14.6 5 Sudoeste 18 Sudoeste 0 926.4 -- 59
2020-05-05 09:00:00 14 3 Oeste 15 Sudoeste 0 926.2 -- 63
2020-05-05 08:00:00 11.2 6 Sudoeste 15 Sudoeste 0 925.9 -- 73
2020-05-05 07:00:00 10.6 6 Sudoeste 13 Sudoeste 0 925.5 -- 75
2020-05-05 06:00:00 10.9 4 Sudoeste 9 Sudoeste 0 925.6 -- 75
2020-05-05 05:00:00 11.9 0 Calma 7 Oeste 0 925.2 -- 70
2020-05-05 04:00:00 13.1 4 Sudoeste 11 Sudoeste 0 924.7 -- 66
2020-05-05 03:00:00 14.1 4 Sudoeste 16 Sudoeste 0 924.7 -- 61
2020-05-05 02:00:00 14.8 9 Sudoeste 18 Sudoeste 0 925 -- 59
2020-05-05 01:00:00 15.4 10 Sudoeste 18 Sudoeste 0 924.9 -- 58
2020-05-05 00:00:00 15.3 6 Sudoeste 12 Sudoeste 0 924.8 -- 53